Terminal Aerodrome Forecast
Issued by NWS Charleston, WV

Home | Current Version | Previous Version | Text Only | Print | Product List | Glossary On
Versions: 1 2 3 4 5 6 7 8 9 10 11 12 13 14 15 16 17 18 19 20 21 22 23 24 25 26 27
953
FTUS41 KRLX 221744 AAA
TAFPKB
TAF AMD
KPKB 221744Z 2218/2318 22010G16KT P6SM VCTS BKN050CB
      TEMPO 2221/2223 2SM +TSRA BR OVC015CB
     FM222300 22007KT 4SM +SHRA BR VCTS OVC035CB
      TEMPO 2223/2302 1SM +TSRA BR OVC008CB
     FM230300 VRB03KT P6SM BKN020
     FM230600 VRB03KT P6SM BKN008
     FM230700 VRB03KT 5SM BR BKN035
     FM231300 VRB03KT P6SM SCT015
     FM231700 31004KT P6SM FEW250=

USA.gov is the U.S. government's official web portal to all federal, state and local government web resources and services.